createdAt,value
2023-01-09T00:00:39.607Z,986.6
2023-01-09T00:01:55.908Z,986.6
2023-01-09T00:03:12.201Z,986.6
2023-01-09T00:04:28.510Z,986.6
2023-01-09T00:05:44.805Z,986.5
2023-01-09T00:07:01.096Z,986.6
2023-01-09T00:08:17.373Z,986.5
2023-01-09T00:09:33.677Z,986.5
2023-01-09T00:10:49.972Z,986.5
2023-01-09T00:12:06.255Z,986.5
2023-01-09T00:13:21.567Z,986.5
2023-01-09T00:14:37.881Z,986.5
2023-01-09T00:15:54.174Z,986.5
2023-01-09T00:17:10.448Z,986.5
2023-01-09T00:18:26.745Z,986.4
2023-01-09T00:19:43.058Z,986.5
2023-01-09T00:20:59.338Z,986.4
2023-01-09T00:22:15.640Z,986.4
2023-01-09T00:23:31.953Z,986.5
2023-01-09T00:24:48.221Z,986.4
2023-01-09T00:26:04.508Z,986.4
2023-01-09T00:27:20.813Z,986.4
2023-01-09T00:28:37.111Z,986.4
2023-01-09T00:29:52.429Z,986.4
2023-01-09T00:31:08.697Z,986.4
2023-01-09T00:32:24.993Z,986.4
2023-01-09T00:33:41.304Z,986.3
2023-01-09T00:34:57.585Z,986.4
2023-01-09T00:36:13.872Z,986.3
2023-01-09T00:37:30.173Z,986.3
2023-01-09T00:38:46.471Z,986.2
2023-01-09T00:40:02.756Z,986.3
2023-01-09T00:41:19.050Z,986.2
2023-01-09T00:42:35.350Z,986.1
2023-01-09T00:43:51.656Z,986.2
2023-01-09T00:45:07.942Z,986
2023-01-09T00:46:23.266Z,986
2023-01-09T00:47:39.000Z,985.9
2023-01-09T00:48:55.855Z,985.9
2023-01-09T00:50:12.138Z,985.9
2023-01-09T00:51:28.420Z,985.9
2023-01-09T00:52:44.723Z,985.8
2023-01-09T00:54:01.034Z,985.8
2023-01-09T00:55:17.323Z,985.8
2023-01-09T00:56:33.603Z,985.8
2023-01-09T00:57:49.909Z,985.8
2023-01-09T00:59:06.184Z,985.7
2023-01-09T01:00:22.512Z,985.7
2023-01-09T01:01:38.782Z,985.7
2023-01-09T01:02:54.102Z,985.6
2023-01-09T01:04:10.400Z,985.7
2023-01-09T01:05:26.683Z,985.6
2023-01-09T01:06:42.965Z,985.5
2023-01-09T01:07:59.265Z,985.6
2023-01-09T01:09:15.553Z,985.5
2023-01-09T01:10:31.859Z,985.5
2023-01-09T01:11:48.163Z,985.5
2023-01-09T01:13:04.438Z,985.5
2023-01-09T01:14:20.742Z,985.5
2023-01-09T01:15:37.031Z,985.5
2023-01-09T01:16:53.333Z,985.6
2023-01-09T01:18:09.615Z,985.5
2023-01-09T01:19:24.922Z,985.5
2023-01-09T01:20:41.247Z,985.5
2023-01-09T01:21:57.513Z,985.5
2023-01-09T01:23:13.817Z,985.4
2023-01-09T01:24:30.134Z,985.5
2023-01-09T01:25:46.398Z,985.5
2023-01-09T01:27:02.694Z,985.5
2023-01-09T01:28:19.013Z,985.5
2023-01-09T01:29:35.292Z,985.5
2023-01-09T01:30:51.577Z,985.5
2023-01-09T01:32:07.865Z,985.5
2023-01-09T01:33:24.161Z,985.5
2023-01-09T01:34:40.465Z,985.4
2023-01-09T01:35:55.768Z,985.5
2023-01-09T01:37:12.066Z,985.4
2023-01-09T01:38:28.368Z,985.4
2023-01-09T01:39:44.671Z,985.5
2023-01-09T01:41:00.952Z,985.5
2023-01-09T01:42:17.263Z,985.4
2023-01-09T01:43:33.552Z,985.5
2023-01-09T01:44:49.851Z,985.6
2023-01-09T01:46:06.144Z,985.4
2023-01-09T01:47:22.433Z,985.3
2023-01-09T01:48:38.725Z,985.3
2023-01-09T01:49:55.005Z,985.4
2023-01-09T01:51:11.297Z,985.3
2023-01-09T01:52:26.607Z,985.3
2023-01-09T01:53:42.933Z,985.3
2023-01-09T01:54:59.198Z,985.3
2023-01-09T01:56:15.510Z,985.2
2023-01-09T01:57:31.786Z,985.3
2023-01-09T01:58:48.110Z,985.2
2023-01-09T02:00:04.403Z,985.2
2023-01-09T02:01:20.674Z,985.1
2023-01-09T02:02:36.961Z,985.1
2023-01-09T02:03:53.257Z,985.1
2023-01-09T02:05:09.561Z,985.2
2023-01-09T02:06:25.865Z,985.1
2023-01-09T02:07:42.146Z,985.1
2023-01-09T02:08:57.454Z,985.1
2023-01-09T02:10:13.766Z,985.1
2023-01-09T02:11:30.036Z,985.1
2023-01-09T02:12:46.366Z,985
2023-01-09T02:14:02.631Z,985
2023-01-09T02:15:18.922Z,985
2023-01-09T02:16:35.239Z,985
2023-01-09T02:17:51.528Z,984.9
2023-01-09T02:19:07.805Z,984.9
2023-01-09T02:20:24.128Z,984.9
2023-01-09T02:21:40.398Z,984.9
2023-01-09T02:22:56.710Z,984.9
2023-01-09T02:24:13.006Z,984.8
2023-01-09T02:25:28.291Z,984.8
2023-01-09T02:26:44.603Z,984.8
2023-01-09T02:28:00.887Z,984.9
2023-01-09T02:29:17.201Z,984.8
2023-01-09T02:30:33.468Z,984.8
2023-01-09T02:31:49.770Z,984.8
2023-01-09T02:33:06.077Z,984.8
2023-01-09T02:34:22.359Z,984.8
2023-01-09T02:35:38.668Z,984.8
2023-01-09T02:36:54.944Z,984.8
2023-01-09T02:38:11.234Z,984.8
2023-01-09T02:39:27.554Z,984.8
2023-01-09T02:40:43.843Z,984.8
2023-01-09T02:41:59.162Z,984.8
2023-01-09T02:43:15.425Z,984.7
2023-01-09T02:44:31.746Z,984.7
2023-01-09T02:45:48.046Z,984.7
2023-01-09T02:47:04.314Z,984.7
2023-01-09T02:48:20.631Z,984.7
2023-01-09T02:49:36.900Z,984.7
2023-01-09T02:50:53.217Z,984.7
2023-01-09T02:52:09.490Z,984.7
2023-01-09T02:53:25.804Z,984.7
2023-01-09T02:54:42.073Z,984.7
2023-01-09T02:55:58.372Z,984.7
2023-01-09T02:57:14.663Z,984.7
2023-01-09T02:58:29.997Z,984.7
2023-01-09T02:59:46.268Z,984.7
2023-01-09T03:01:02.560Z,984.6
2023-01-09T03:02:18.854Z,984.7
2023-01-09T03:03:35.150Z,984.6
2023-01-09T03:04:51.448Z,984.7
2023-01-09T03:06:07.755Z,984.7
2023-01-09T03:07:24.070Z,984.7
2023-01-09T03:08:40.348Z,984.6
2023-01-09T03:09:56.617Z,984.7
2023-01-09T03:11:12.942Z,984.6
2023-01-09T03:12:29.218Z,984.7
2023-01-09T03:13:45.510Z,984.7
2023-01-09T03:15:00.817Z,984.7
2023-01-09T03:16:17.107Z,984.7
2023-01-09T03:17:33.406Z,984.6
2023-01-09T03:18:49.703Z,984.7
2023-01-09T03:20:05.988Z,984.6
2023-01-09T03:21:22.313Z,984.7
2023-01-09T03:22:37.599Z,984.7
2023-01-09T03:23:53.907Z,984.7
2023-01-09T03:25:10.211Z,984.7
2023-01-09T03:26:26.511Z,984.7
2023-01-09T03:27:42.790Z,984.7
2023-01-09T03:28:59.077Z,984.7
2023-01-09T03:30:15.395Z,984.7
2023-01-09T03:31:31.694Z,984.7
2023-01-09T03:32:47.960Z,984.8
2023-01-09T03:34:04.266Z,984.7
2023-01-09T03:35:20.553Z,984.6
2023-01-09T03:36:36.832Z,984.7
2023-01-09T03:37:53.128Z,984.6
2023-01-09T03:39:08.469Z,984.6
2023-01-09T03:40:24.745Z,984.6
2023-01-09T03:41:41.053Z,984.6
2023-01-09T03:42:57.327Z,984.7
2023-01-09T03:44:13.650Z,984.6
2023-01-09T03:45:29.914Z,984.6
2023-01-09T03:46:46.228Z,984.5
2023-01-09T03:48:02.497Z,984.6
2023-01-09T03:49:18.802Z,984.5
2023-01-09T03:50:35.084Z,984.5
2023-01-09T03:51:51.380Z,984.5
2023-01-09T03:53:07.695Z,984.5
2023-01-09T03:54:23.990Z,984.5
2023-01-09T03:55:39.294Z,984.4
2023-01-09T03:56:55.578Z,984.4
2023-01-09T03:58:11.876Z,984.4
2023-01-09T03:59:28.160Z,984.4
2023-01-09T04:00:44.456Z,984.3
2023-01-09T04:02:00.779Z,984.4
2023-01-09T04:03:17.049Z,984.3
2023-01-09T04:04:33.341Z,984.2
2023-01-09T04:05:49.640Z,984.3
2023-01-09T04:07:05.936Z,984.2
2023-01-09T04:08:22.217Z,984.1
2023-01-09T04:09:38.531Z,984.1
2023-01-09T04:10:54.823Z,984.1
2023-01-09T04:12:10.143Z,984.1
2023-01-09T04:13:26.420Z,984.1
2023-01-09T04:14:42.709Z,984.1
2023-01-09T04:15:59.016Z,984.1
2023-01-09T04:17:15.294Z,984.1
2023-01-09T04:18:31.587Z,984.1
2023-01-09T04:19:47.912Z,984.1
2023-01-09T04:21:04.186Z,984.1
2023-01-09T04:22:20.501Z,984
2023-01-09T04:23:36.794Z,984.1
2023-01-09T04:24:53.065Z,984
2023-01-09T04:26:09.377Z,984
2023-01-09T04:27:25.678Z,984
2023-01-09T04:28:40.961Z,984
2023-01-09T04:29:57.291Z,984
2023-01-09T04:31:13.546Z,984
2023-01-09T04:32:29.839Z,984
2023-01-09T04:33:46.160Z,984
2023-01-09T04:35:02.428Z,984
2023-01-09T04:36:18.737Z,983.9
2023-01-09T04:37:35.039Z,983.9
2023-01-09T04:38:51.336Z,983.9
2023-01-09T04:40:07.603Z,983.9
2023-01-09T04:41:23.903Z,983.8
2023-01-09T04:42:40.228Z,983.8
2023-01-09T04:43:56.489Z,983.8
2023-01-09T04:45:11.802Z,983.8
2023-01-09T04:46:28.096Z,983.8
2023-01-09T04:47:44.399Z,983.8
2023-01-09T04:49:00.704Z,983.8
2023-01-09T04:50:16.982Z,983.8
2023-01-09T04:52:49.587Z,983.8
2023-01-09T04:54:05.860Z,983.8
2023-01-09T04:55:22.166Z,983.7
2023-01-09T04:56:38.455Z,983.7
2023-01-09T04:57:54.763Z,983.7
2023-01-09T04:59:11.050Z,983.7
2023-01-09T05:00:27.352Z,983.7
2023-01-09T05:01:42.639Z,983.7
2023-01-09T05:02:58.935Z,983.7
2023-01-09T05:04:15.261Z,983.7
2023-01-09T05:05:31.544Z,983.6
2023-01-09T05:06:47.826Z,983.6
2023-01-09T05:08:04.143Z,983.7
2023-01-09T05:09:20.435Z,983.6
2023-01-09T05:10:36.702Z,983.6
2023-01-09T05:11:52.996Z,983.6
2023-01-09T05:13:09.299Z,983.6
2023-01-09T05:14:25.581Z,983.6
2023-01-09T05:15:41.898Z,983.6
2023-01-09T05:16:58.197Z,983.5
2023-01-09T05:18:13.476Z,983.5
2023-01-09T05:19:29.812Z,983.5
2023-01-09T05:20:46.075Z,983.5
2023-01-09T05:22:02.374Z,983.6
2023-01-09T05:23:18.658Z,983.5
2023-01-09T05:24:34.962Z,983.5
2023-01-09T05:25:51.284Z,983.5
2023-01-09T05:27:07.555Z,983.5
2023-01-09T05:28:23.831Z,983.5
2023-01-09T05:29:40.129Z,983.5
2023-01-09T05:30:56.438Z,983.5
2023-01-09T05:32:12.741Z,983.5
2023-01-09T05:33:29.011Z,983.5
2023-01-09T05:34:44.323Z,983.5
2023-01-09T05:36:00.635Z,983.5
2023-01-09T05:37:16.910Z,983.5
2023-01-09T05:38:33.225Z,983.5
2023-01-09T05:39:49.503Z,983.5
2023-01-09T05:41:05.827Z,983.5
2023-01-09T05:42:22.103Z,983.5
2023-01-09T05:43:38.391Z,983.5
2023-01-09T05:44:54.676Z,983.5
2023-01-09T05:46:10.976Z,983.5
2023-01-09T05:47:27.261Z,983.5
2023-01-09T05:48:43.564Z,983.5
2023-01-09T05:49:59.885Z,983.5
2023-01-09T05:51:15.164Z,983.5
2023-01-09T05:52:31.461Z,983.5
2023-01-09T05:53:47.750Z,983.5
2023-01-09T05:55:04.058Z,983.5
2023-01-09T05:56:20.347Z,983.5
2023-01-09T05:57:36.665Z,983.5
2023-01-09T05:58:52.926Z,983.4
2023-01-09T06:00:09.238Z,983.4
2023-01-09T06:01:25.529Z,983.4
2023-01-09T06:02:41.811Z,983.5
2023-01-09T06:03:58.112Z,983.4
2023-01-09T06:05:14.407Z,983.4
2023-01-09T06:06:30.722Z,983.4
2023-01-09T06:07:46.018Z,983.5
2023-01-09T06:09:02.330Z,983.5
2023-01-09T06:10:18.587Z,983.4
2023-01-09T06:11:34.908Z,983.5
2023-01-09T06:12:51.212Z,983.6
2023-01-09T06:14:07.480Z,983.6
2023-01-09T06:15:23.774Z,983.7
2023-01-09T06:16:40.084Z,983.8
2023-01-09T06:17:56.356Z,983.7
2023-01-09T06:19:12.677Z,983.6
2023-01-09T06:20:28.954Z,983.6
2023-01-09T06:21:45.248Z,983.7
2023-01-09T06:23:01.534Z,983.7
2023-01-09T06:24:16.852Z,983.7
2023-01-09T06:25:33.155Z,983.7
2023-01-09T06:26:49.446Z,983.8
2023-01-09T06:28:05.726Z,983.7
2023-01-09T06:29:22.044Z,983.7
2023-01-09T06:30:38.310Z,983.6
2023-01-09T06:31:54.615Z,983.7
2023-01-09T06:33:10.926Z,983.7
2023-01-09T06:34:27.214Z,983.7
2023-01-09T06:35:43.510Z,983.8
2023-01-09T06:36:59.781Z,983.8
2023-01-09T06:38:16.077Z,983.7
2023-01-09T06:39:32.371Z,983.7
2023-01-09T06:40:47.684Z,983.7
2023-01-09T06:42:03.945Z,983.7
2023-01-09T06:43:20.186Z,983.7
2023-01-09T06:44:36.439Z,983.6
2023-01-09T06:45:52.650Z,983.6
2023-01-09T06:47:08.897Z,983.6
2023-01-09T06:48:25.151Z,983.7
2023-01-09T06:49:41.399Z,983.7
2023-01-09T06:50:57.626Z,983.7
2023-01-09T06:52:13.866Z,983.7
2023-01-09T06:53:30.110Z,983.7
2023-01-09T06:54:46.353Z,983.7
2023-01-09T06:56:02.583Z,983.7
2023-01-09T06:57:17.849Z,983.7
2023-01-09T06:58:34.089Z,983.7
2023-01-09T06:59:50.322Z,983.7
2023-01-09T07:01:06.559Z,983.7
2023-01-09T07:02:22.813Z,983.8
2023-01-09T07:03:39.043Z,983.7
2023-01-09T07:04:55.293Z,983.8
2023-01-09T07:06:11.536Z,983.8
2023-01-09T07:07:27.770Z,983.8
2023-01-09T07:08:44.008Z,983.9
2023-01-09T07:10:00.245Z,983.9
2023-01-09T07:11:16.499Z,983.9
2023-01-09T07:12:32.724Z,984.1
2023-01-09T07:13:47.979Z,983.9
2023-01-09T07:15:04.258Z,983.9
2023-01-09T07:16:20.474Z,984
2023-01-09T07:17:36.702Z,984
2023-01-09T07:18:52.958Z,984
2023-01-09T07:20:09.196Z,984
2023-01-09T07:21:25.433Z,984
2023-01-09T07:22:41.660Z,984
2023-01-09T07:23:57.918Z,984
2023-01-09T07:25:14.142Z,984.1
2023-01-09T07:26:30.415Z,984.1
2023-01-09T07:27:46.627Z,984.1
2023-01-09T07:29:02.871Z,984.2
2023-01-09T07:30:18.146Z,984.1
2023-01-09T07:31:34.376Z,984.2
2023-01-09T07:32:50.598Z,984.2
2023-01-09T07:34:06.847Z,984.2
2023-01-09T07:35:23.110Z,984.2
2023-01-09T07:36:39.347Z,984.3
2023-01-09T07:37:54.615Z,984.3
2023-01-09T07:39:10.823Z,984.3
2023-01-09T07:40:27.074Z,984.3
2023-01-09T07:41:43.302Z,984.3
2023-01-09T07:42:59.541Z,984.3
2023-01-09T07:44:15.816Z,984.4
2023-01-09T07:45:32.035Z,984.4
2023-01-09T07:46:48.290Z,984.4
2023-01-09T07:48:04.541Z,984.5
2023-01-09T07:49:20.773Z,984.5
2023-01-09T07:50:36.986Z,984.6
2023-01-09T07:51:53.229Z,984.5
2023-01-09T07:53:09.464Z,984.5
2023-01-09T07:54:24.736Z,984.6
2023-01-09T07:55:40.991Z,984.6
2023-01-09T07:56:57.211Z,984.6
2023-01-09T07:58:13.447Z,984.6
2023-01-09T07:59:29.702Z,984.7
2023-01-09T08:00:45.921Z,984.7
2023-01-09T08:03:18.442Z,984.7
2023-01-09T08:04:34.649Z,984.8
2023-01-09T08:05:50.877Z,984.8
2023-01-09T08:07:07.143Z,984.8
2023-01-09T08:08:23.366Z,984.8
2023-01-09T08:09:39.613Z,984.8
2023-01-09T08:10:54.870Z,984.8
2023-01-09T08:12:11.095Z,984.8
2023-01-09T08:13:27.369Z,984.9
2023-01-09T08:14:43.614Z,984.8
2023-01-09T08:15:59.843Z,984.9
2023-01-09T08:17:16.056Z,984.9
2023-01-09T08:18:32.298Z,985
2023-01-09T08:19:48.538Z,984.9
2023-01-09T08:21:04.780Z,985.1
2023-01-09T08:22:21.032Z,984.9
2023-01-09T08:23:37.296Z,985
2023-01-09T08:24:53.498Z,985
2023-01-09T08:26:09.765Z,985
2023-01-09T08:27:25.007Z,985
2023-01-09T08:28:41.261Z,985
2023-01-09T08:29:57.478Z,985
2023-01-09T08:31:13.740Z,985
2023-01-09T08:32:29.987Z,985.1
2023-01-09T08:33:46.198Z,985.1
2023-01-09T08:35:02.448Z,985.1
2023-01-09T08:36:18.684Z,985.1
2023-01-09T08:37:34.942Z,985.1
2023-01-09T08:38:51.182Z,985.1
2023-01-09T08:40:07.427Z,985.2
2023-01-09T08:41:23.662Z,985.2
2023-01-09T08:42:39.905Z,985.2
2023-01-09T08:43:55.135Z,985.3
2023-01-09T08:45:11.378Z,985.3
2023-01-09T08:46:27.611Z,985.3
2023-01-09T08:47:43.851Z,985.3
2023-01-09T08:49:00.097Z,985.3
2023-01-09T08:50:16.340Z,985.3
2023-01-09T08:51:32.578Z,985.3
2023-01-09T08:52:48.840Z,985.3
2023-01-09T08:54:05.054Z,985.3
2023-01-09T08:55:21.298Z,985.3
2023-01-09T08:56:37.562Z,985.2
2023-01-09T08:57:53.782Z,985.3
2023-01-09T08:59:10.023Z,985.4
2023-01-09T09:00:25.312Z,985.4
2023-01-09T09:01:41.546Z,985.4
2023-01-09T09:02:57.757Z,985.4
2023-01-09T09:04:14.022Z,985.5
2023-01-09T09:05:30.256Z,985.5
2023-01-09T09:06:46.496Z,985.5
2023-01-09T09:08:02.711Z,985.5
2023-01-09T09:09:18.976Z,985.6
2023-01-09T09:10:35.197Z,985.6
2023-01-09T09:11:51.434Z,985.7
2023-01-09T09:13:07.673Z,985.8
2023-01-09T09:14:23.942Z,985.9
2023-01-09T09:15:40.159Z,985.9
2023-01-09T09:16:55.421Z,985.9
2023-01-09T09:18:11.657Z,985.9
2023-01-09T09:19:27.925Z,985.9
2023-01-09T09:20:44.136Z,986
2023-01-09T09:22:00.402Z,986
2023-01-09T09:23:16.624Z,986
2023-01-09T09:24:32.866Z,985.9
2023-01-09T09:25:49.097Z,986
2023-01-09T09:27:05.349Z,985.9
2023-01-09T09:28:21.585Z,985.9
2023-01-09T09:29:37.852Z,985.9
2023-01-09T09:30:54.055Z,985.8
2023-01-09T09:32:10.319Z,985.8
2023-01-09T09:33:25.561Z,985.9
2023-01-09T09:34:41.811Z,985.9
2023-01-09T09:35:58.028Z,986
2023-01-09T09:37:14.299Z,986
2023-01-09T09:38:30.521Z,986
2023-01-09T09:39:46.778Z,986
2023-01-09T09:41:03.002Z,986.1
2023-01-09T09:42:19.253Z,986.1
2023-01-09T09:43:35.476Z,986.1
2023-01-09T09:44:51.715Z,986.1
2023-01-09T09:46:07.950Z,986.1
2023-01-09T09:47:24.202Z,986.2
2023-01-09T09:48:40.450Z,986
2023-01-09T09:49:55.704Z,986.1
2023-01-09T09:51:11.936Z,986
2023-01-09T09:52:28.193Z,986.1
2023-01-09T09:53:44.418Z,986.1
2023-01-09T09:55:00.670Z,986.3
2023-01-09T09:56:16.910Z,986.3
2023-01-09T09:57:33.162Z,986.3
2023-01-09T09:58:49.403Z,986.3
2023-01-09T10:00:05.619Z,986.4
2023-01-09T10:01:21.857Z,986.4
2023-01-09T10:02:38.121Z,986.4
2023-01-09T10:03:54.342Z,986.5
2023-01-09T10:05:10.584Z,986.5
2023-01-09T10:06:25.857Z,986.6
2023-01-09T10:07:42.073Z,986.6
2023-01-09T10:08:58.338Z,986.5
2023-01-09T10:10:14.552Z,986.5
2023-01-09T10:11:30.788Z,986.5
2023-01-09T10:12:47.031Z,986.5
2023-01-09T10:14:03.274Z,986.4
2023-01-09T10:15:19.512Z,986.4
2023-01-09T10:16:35.752Z,986.5
2023-01-09T10:17:51.990Z,986.4
2023-01-09T10:19:08.258Z,986.5
2023-01-09T10:20:24.474Z,986.6
2023-01-09T10:21:40.715Z,986.4
2023-01-09T10:22:55.982Z,986.4
2023-01-09T10:24:12.230Z,986.4
2023-01-09T10:25:28.443Z,986.3
2023-01-09T10:26:44.711Z,986.4
2023-01-09T10:28:00.925Z,986.5
2023-01-09T10:29:17.167Z,986.4
2023-01-09T10:30:33.413Z,986.4
2023-01-09T10:31:49.653Z,986.2
2023-01-09T10:33:05.897Z,986.2
2023-01-09T10:34:22.128Z,986.3
2023-01-09T10:35:38.395Z,986.2
2023-01-09T10:36:54.609Z,986.1
2023-01-09T10:38:10.881Z,986.1
2023-01-09T10:39:26.109Z,986.1
2023-01-09T10:40:42.353Z,986.1
2023-01-09T10:41:58.610Z,986.1
2023-01-09T10:43:14.833Z,986.1
2023-01-09T10:44:31.064Z,986.2
2023-01-09T10:45:47.327Z,986.2
2023-01-09T10:47:03.545Z,986.2
2023-01-09T10:48:19.781Z,986.3
2023-01-09T10:49:36.060Z,986.3
2023-01-09T10:50:52.255Z,986.2
2023-01-09T10:52:08.510Z,986.2
2023-01-09T10:53:24.736Z,986.3
2023-01-09T10:54:40.977Z,986.4
2023-01-09T10:55:56.264Z,986.4
2023-01-09T10:57:12.486Z,986.4
2023-01-09T10:58:28.723Z,986.5
2023-01-09T10:59:44.978Z,986.5
2023-01-09T11:01:01.196Z,986.5
2023-01-09T11:02:17.442Z,986.5
2023-01-09T11:03:33.671Z,986.3
2023-01-09T11:04:49.938Z,986.5
2023-01-09T11:06:06.182Z,986.5
2023-01-09T11:07:22.418Z,986.4
2023-01-09T11:08:38.634Z,986.5
2023-01-09T11:09:54.905Z,986.3
2023-01-09T11:11:11.107Z,986.4
2023-01-09T11:12:26.376Z,986.4
2023-01-09T11:13:42.622Z,986.6
2023-01-09T11:14:58.847Z,986.4
2023-01-09T11:16:15.124Z,986.4
2023-01-09T11:17:31.331Z,986.4
2023-01-09T11:18:47.591Z,986.4
2023-01-09T11:20:03.821Z,986.4
2023-01-09T11:21:20.044Z,986.3
2023-01-09T11:22:36.313Z,986.3
2023-01-09T11:23:52.554Z,986.2
2023-01-09T11:25:08.767Z,986.2
2023-01-09T11:26:25.013Z,986.3
2023-01-09T11:27:41.253Z,986.3
2023-01-09T11:28:56.531Z,986.3
2023-01-09T11:30:12.768Z,986.4
2023-01-09T11:31:28.990Z,986.4
2023-01-09T11:32:45.255Z,986.4
2023-01-09T11:34:01.466Z,986.3
2023-01-09T11:35:17.713Z,986.4
2023-01-09T11:36:33.945Z,986.3
2023-01-09T11:37:50.184Z,986.2
2023-01-09T11:39:06.435Z,986.1
2023-01-09T11:40:22.670Z,986.1
2023-01-09T11:41:38.909Z,986
2023-01-09T11:42:55.143Z,986.1
2023-01-09T11:44:11.383Z,986
2023-01-09T11:45:26.654Z,986
2023-01-09T11:46:42.918Z,986
2023-01-09T11:47:59.153Z,986.1
2023-01-09T11:49:15.360Z,986.1
2023-01-09T11:50:31.612Z,986
2023-01-09T11:51:47.879Z,986
2023-01-09T11:53:03.125Z,986.2
2023-01-09T11:54:19.361Z,986.3
2023-01-09T11:55:35.591Z,986.3
2023-01-09T11:56:51.857Z,986.3
2023-01-09T11:58:08.076Z,986.2
2023-01-09T11:59:24.311Z,986.2
2023-01-09T12:00:40.578Z,986.3
2023-01-09T12:01:56.824Z,986.3
2023-01-09T12:03:13.058Z,986.3
2023-01-09T12:04:29.304Z,986.2
2023-01-09T12:05:45.523Z,986.2
2023-01-09T12:07:01.779Z,986.1
2023-01-09T12:08:17.989Z,986.2
2023-01-09T12:09:33.257Z,986.2
2023-01-09T12:10:49.501Z,986.2
2023-01-09T12:12:05.765Z,986.1
2023-01-09T12:13:21.970Z,986.1
2023-01-09T12:14:38.243Z,986.1
2023-01-09T12:15:54.447Z,986.1
2023-01-09T12:17:10.696Z,986.1
2023-01-09T12:18:26.927Z,986.1
2023-01-09T12:19:43.180Z,986
2023-01-09T12:20:59.417Z,986.2
2023-01-09T12:22:15.650Z,986.1
2023-01-09T12:23:31.894Z,986.1
2023-01-09T12:24:48.133Z,986.2
2023-01-09T12:26:03.406Z,986.2
2023-01-09T12:27:19.636Z,986.1
2023-01-09T12:28:35.878Z,986.2
2023-01-09T12:29:52.000Z,986.2
2023-01-09T12:31:08.381Z,986.2
2023-01-09T12:32:24.587Z,986.2
2023-01-09T12:33:40.834Z,986.2
2023-01-09T12:34:57.063Z,986.3
2023-01-09T12:36:13.300Z,986.4
2023-01-09T12:37:29.547Z,986.4
2023-01-09T12:38:45.786Z,986.4
2023-01-09T12:40:02.049Z,986.2
2023-01-09T12:41:18.270Z,986.2
2023-01-09T12:42:33.517Z,986.3
2023-01-09T12:43:49.755Z,986.4
2023-01-09T12:45:05.997Z,986.4
2023-01-09T12:46:22.263Z,986.4
2023-01-09T12:47:38.486Z,986.4
2023-01-09T12:48:54.723Z,986.4
2023-01-09T12:50:10.978Z,986.5
2023-01-09T12:51:27.231Z,986.5
2023-01-09T12:52:43.466Z,986.5
2023-01-09T12:53:59.676Z,986.4
2023-01-09T12:55:15.939Z,986.5
2023-01-09T12:56:32.163Z,986.5
2023-01-09T12:57:48.392Z,986.5
2023-01-09T12:59:03.644Z,986.5
2023-01-09T13:00:19.898Z,986.5
2023-01-09T13:01:36.132Z,986.5
2023-01-09T13:02:52.367Z,986.4
2023-01-09T13:04:08.612Z,986.4
2023-01-09T13:05:24.850Z,986.5
2023-01-09T13:06:41.092Z,986.4
2023-01-09T13:07:57.330Z,986.5
2023-01-09T13:09:13.574Z,986.5
2023-01-09T13:10:29.817Z,986.6
2023-01-09T13:11:46.061Z,986.5
2023-01-09T13:13:02.282Z,986.6
2023-01-09T13:14:18.533Z,986.6
2023-01-09T13:15:33.790Z,986.6
2023-01-09T13:16:50.035Z,986.6
2023-01-09T13:18:06.270Z,986.7
2023-01-09T13:19:22.512Z,986.7
2023-01-09T13:20:38.739Z,986.8
2023-01-09T13:21:54.991Z,986.7
2023-01-09T13:23:11.237Z,986.8
2023-01-09T13:24:27.462Z,986.8
2023-01-09T13:25:43.717Z,986.8
2023-01-09T13:26:59.944Z,986.8
2023-01-09T13:28:16.178Z,986.9
2023-01-09T13:29:32.436Z,986.9
2023-01-09T13:30:48.669Z,986.9
2023-01-09T13:32:03.916Z,986.9
2023-01-09T13:33:20.166Z,987
2023-01-09T13:34:36.409Z,987
2023-01-09T13:35:52.645Z,987
2023-01-09T13:37:08.884Z,987.1
2023-01-09T13:38:25.120Z,987.1
2023-01-09T13:39:41.359Z,987.1
2023-01-09T13:40:57.595Z,987.1
2023-01-09T13:42:13.836Z,987
2023-01-09T13:43:30.079Z,987
2023-01-09T13:44:46.328Z,987.1
2023-01-09T13:46:02.554Z,987.1
2023-01-09T13:47:18.809Z,987.1
2023-01-09T13:48:34.059Z,987.1
2023-01-09T13:49:50.305Z,987.1
2023-01-09T13:51:06.545Z,987.2
2023-01-09T13:52:22.788Z,987.2
2023-01-09T13:53:39.024Z,987.2
2023-01-09T13:54:55.257Z,987.2
2023-01-09T13:56:11.494Z,987.3
2023-01-09T13:57:27.734Z,987.2
2023-01-09T13:58:43.988Z,987.3
2023-01-09T14:00:00.207Z,987.3
2023-01-09T14:01:16.461Z,987.3
2023-01-09T14:02:32.702Z,987.3
2023-01-09T14:03:48.928Z,987.4
2023-01-09T14:05:04.198Z,987.4
2023-01-09T14:06:20.427Z,987.5
2023-01-09T14:07:36.666Z,987.5
2023-01-09T14:08:52.918Z,987.5
2023-01-09T14:10:09.150Z,987.6
2023-01-09T14:11:25.396Z,987.6
2023-01-09T14:12:41.630Z,987.6
2023-01-09T14:13:57.876Z,987.6
2023-01-09T14:15:14.126Z,987.6
2023-01-09T14:16:30.355Z,987.5
2023-01-09T14:17:46.602Z,987.6
2023-01-09T14:19:02.841Z,987.5
2023-01-09T14:20:19.082Z,987.6
2023-01-09T14:21:34.338Z,987.5
2023-01-09T14:22:50.559Z,987.5
2023-01-09T14:24:06.814Z,987.7
2023-01-09T14:25:23.045Z,987.6
2023-01-09T14:26:39.286Z,987.6
2023-01-09T14:27:55.538Z,987.6
2023-01-09T14:29:11.768Z,987.6
2023-01-09T14:30:28.005Z,987.6
2023-01-09T14:31:44.260Z,987.7
2023-01-09T14:33:00.498Z,987.8
2023-01-09T14:34:16.721Z,987.8
2023-01-09T14:35:32.973Z,987.9
2023-01-09T14:36:49.208Z,987.8
2023-01-09T14:38:04.476Z,987.9
2023-01-09T14:39:20.704Z,987.9
2023-01-09T14:40:36.943Z,988
2023-01-09T14:41:53.194Z,988
2023-01-09T14:43:09.428Z,988
2023-01-09T14:44:25.662Z,988
2023-01-09T14:45:41.898Z,988
2023-01-09T14:46:58.137Z,988
2023-01-09T14:48:14.387Z,988
2023-01-09T14:49:30.632Z,988
2023-01-09T14:50:46.873Z,988
2023-01-09T14:52:03.096Z,988
2023-01-09T14:53:19.349Z,988
2023-01-09T14:54:34.611Z,988
2023-01-09T14:55:50.840Z,988
2023-01-09T14:57:07.092Z,988
2023-01-09T14:58:23.322Z,988
2023-01-09T14:59:39.553Z,988
2023-01-09T15:00:55.803Z,988.1
2023-01-09T15:02:12.056Z,988.1
2023-01-09T15:03:28.284Z,988.1
2023-01-09T15:04:44.524Z,988.2
2023-01-09T15:06:00.758Z,988.1
2023-01-09T15:07:16.995Z,988.2
2023-01-09T15:08:33.239Z,988.2
2023-01-09T15:09:49.479Z,988.2
2023-01-09T15:11:04.738Z,988.2
2023-01-09T15:12:20.992Z,988.2
2023-01-09T15:13:37.220Z,988.2
2023-01-09T15:14:53.461Z,988.2
2023-01-09T15:16:09.708Z,988.4
2023-01-09T15:17:25.948Z,988.3
2023-01-09T15:18:42.184Z,988.3
2023-01-09T15:19:58.415Z,988.3
2023-01-09T15:21:14.652Z,988.3
2023-01-09T15:22:30.897Z,988.4
2023-01-09T15:23:47.137Z,988.4
2023-01-09T15:25:03.377Z,988.4
2023-01-09T15:26:19.615Z,988.4
2023-01-09T15:27:34.891Z,988.4
2023-01-09T15:28:51.128Z,988.4
2023-01-09T15:30:07.349Z,988.4
2023-01-09T15:31:23.593Z,988.4
2023-01-09T15:32:39.833Z,988.4
2023-01-09T15:33:56.084Z,988.4
2023-01-09T15:35:12.311Z,988.4
2023-01-09T15:36:28.556Z,988.4
2023-01-09T15:37:44.793Z,988.4
2023-01-09T15:39:01.037Z,988.4
2023-01-09T15:40:17.286Z,988.4
2023-01-09T15:41:33.515Z,988.4
2023-01-09T15:42:49.749Z,988.4
2023-01-09T15:44:05.016Z,988.4
2023-01-09T15:45:21.254Z,988.4
2023-01-09T15:46:37.498Z,988.4
2023-01-09T15:47:53.731Z,988.5
2023-01-09T15:49:09.968Z,988.5
2023-01-09T15:50:26.218Z,988.5
2023-01-09T15:51:42.460Z,988.6
2023-01-09T15:52:58.690Z,988.5
2023-01-09T15:54:14.937Z,988.4
2023-01-09T15:55:31.169Z,988.4
2023-01-09T15:56:47.413Z,988.4
2023-01-09T15:58:03.648Z,988.5
2023-01-09T15:59:19.906Z,988.5
2023-01-09T16:00:35.197Z,988.6
2023-01-09T16:01:51.501Z,988.6
2023-01-09T16:03:07.797Z,988.6
2023-01-09T16:04:24.103Z,988.6
2023-01-09T16:05:40.384Z,988.6
2023-01-09T16:06:56.672Z,988.6
2023-01-09T16:08:11.994Z,988.7
2023-01-09T16:09:28.278Z,988.7
2023-01-09T16:10:44.592Z,988.7
2023-01-09T16:12:00.888Z,988.7
2023-01-09T16:13:17.166Z,988.6
2023-01-09T16:14:33.462Z,988.6
2023-01-09T16:15:49.767Z,988.7
2023-01-09T16:17:06.044Z,988.7
2023-01-09T16:18:22.348Z,988.7
2023-01-09T16:19:38.644Z,988.7
2023-01-09T16:20:54.940Z,988.7
2023-01-09T16:22:11.230Z,988.8
2023-01-09T16:23:27.524Z,988.8
2023-01-09T16:24:42.843Z,988.7
2023-01-09T16:25:59.126Z,988.7
2023-01-09T16:27:15.428Z,988.7
2023-01-09T16:28:31.724Z,988.7
2023-01-09T16:29:48.019Z,988.7